Time;durP1;ratioP1;P1;durP2;ratioP2;P2;SDS_P1;SDS_P2;PMS_P1;PMS_P2;Temp;Humidity;BMP_temperature;BMP_pressure;BME280_temperature;BME280_humidity;BME280_pressure;Samples;Min_cycle;Max_cycle;Signal;HPM_P1;HPM_P2
2022/06/15 00:00:58;;;;;;;5.78;3.63;;;13.50;99.90;;;;;;5093976;28;20169;-66
2022/06/15 00:03:27;;;;;;;4.88;3.55;;;13.40;99.90;;;;;;5094548;28;20536;-66
2022/06/15 00:06:03;;;;;;;5.03;3.85;;;13.40;99.90;;;;;;5092830;28;20597;-66
2022/06/15 00:08:29;;;;;;;4.88;3.78;;;13.40;99.90;;;;;;5094050;28;20195;-66
2022/06/15 00:10:55;;;;;;;6.03;3.85;;;13.30;99.90;;;;;;5094198;28;20604;-67
2022/06/15 00:13:21;;;;;;;7.82;3.55;;;13.20;99.90;;;;;;5094198;28;20189;-67
2022/06/15 00:15:48;;;;;;;7.03;3.88;;;13.00;99.90;;;;;;5093686;28;20625;-67
2022/06/15 00:18:14;;;;;;;6.72;4.20;;;12.90;99.90;;;;;;5093896;28;20153;-67
2022/06/15 00:20:39;;;;;;;5.88;4.10;;;12.80;99.90;;;;;;5093843;28;20180;-66
2022/06/15 00:23:05;;;;;;;5.68;3.58;;;12.90;99.90;;;;;;5093807;28;20200;-66
2022/06/15 00:25:31;;;;;;;5.50;3.78;;;12.90;99.90;;;;;;5093820;28;20173;-71
2022/06/15 00:27:57;;;;;;;4.75;3.50;;;12.90;99.90;;;;;;5092325;28;20204;-67
2022/06/15 00:30:24;;;;;;;5.43;3.30;;;12.90;99.90;;;;;;5093584;28;20165;-67
2022/06/15 00:32:50;;;;;;;6.20;3.80;;;12.90;99.90;;;;;;5094217;28;20195;-66
2022/06/15 00:35:17;;;;;;;6.15;3.88;;;13.00;99.90;;;;;;5094012;28;20542;-67
2022/06/15 00:37:43;;;;;;;6.95;3.80;;;13.00;99.90;;;;;;5093643;28;20173;-66
2022/06/15 00:40:09;;;;;;;5.05;3.78;;;13.00;99.90;;;;;;5093673;28;20661;-66
2022/06/15 00:42:35;;;;;;;5.63;4.00;;;12.90;99.90;;;;;;5092453;28;20606;-66
2022/06/15 00:45:02;;;;;;;5.55;4.00;;;12.90;99.90;;;;;;5093695;28;20208;-67
2022/06/15 00:47:31;;;;;;;5.57;3.97;;;12.90;99.90;;;;;;5093537;28;20193;-67
2022/06/15 00:50:16;;;;;;;5.45;3.97;;;12.70;99.90;;;;;;5093709;28;20165;-66
2022/06/15 00:53:08;;;;;;;10.20;4.43;;;12.70;99.90;;;;;;5093568;28;20184;-66
2022/06/15 00:55:36;;;;;;;5.35;4.18;;;12.70;99.90;;;;;;5092966;28;20268;-66
2022/06/15 00:58:05;;;;;;;6.15;4.60;;;12.60;99.90;;;;;;5094262;28;20604;-66
2022/06/15 01:00:31;;;;;;;6.53;4.55;;;12.60;99.90;;;;;;5096048;28;20176;-66
2022/06/15 01:02:57;;;;;;;6.70;4.90;;;12.60;99.90;;;;;;5095098;28;20661;-67
2022/06/15 01:05:28;;;;;;;6.47;4.43;;;12.60;99.90;;;;;;5098014;28;20256;-66
2022/06/15 01:08:02;;;;;;;7.03;4.85;;;12.50;99.90;;;;;;5097588;28;20557;-66
2022/06/15 01:11:00;;;;;;;8.45;4.60;;;12.50;99.90;;;;;;5097817;28;20632;-66
2022/06/15 01:13:47;;;;;;;5.88;4.32;;;12.40;99.90;;;;;;5085441;28;20213;-66
2022/06/15 01:16:40;;;;;;;7.88;4.40;;;12.40;99.90;;;;;;5097535;28;20162;-67
2022/06/15 01:19:38;;;;;;;5.20;4.53;;;12.40;99.90;;;;;;5097676;28;20236;-67
2022/06/15 01:22:17;;;;;;;7.30;4.40;;;12.40;99.90;;;;;;5088356;28;20231;-66
2022/06/15 01:25:16;;;;;;;9.80;4.50;;;12.30;99.90;;;;;;5098016;28;20211;-66
2022/06/15 01:27:51;;;;;;;4.70;3.93;;;12.30;99.90;;;;;;5096973;28;20200;-66
2022/06/15 01:30:34;;;;;;;5.80;4.47;;;12.20;99.90;;;;;;5097351;28;20160;-67
2022/06/15 01:33:06;;;;;;;6.53;4.27;;;12.30;99.90;;;;;;5097107;28;20188;-66
2022/06/15 01:35:38;;;;;;;8.35;4.60;;;12.30;99.90;;;;;;5097464;28;20173;-66
2022/06/15 01:38:40;;;;;;;5.13;4.45;;;12.30;99.90;;;;;;5097071;28;20181;-66
2022/06/15 01:41:24;;;;;;;5.97;4.17;;;12.20;99.90;;;;;;5095829;28;20180;-66
2022/06/15 01:43:56;;;;;;;7.13;4.43;;;12.10;99.90;;;;;;5095785;28;20197;-66
2022/06/15 01:46:23;;;;;;;7.27;4.33;;;12.10;99.90;;;;;;5096761;28;20162;-66
2022/06/15 01:48:53;;;;;;;7.13;4.93;;;12.00;99.90;;;;;;5096773;28;20200;-66
2022/06/15 01:51:23;;;;;;;8.13;5.10;;;12.00;99.90;;;;;;5097084;28;20157;-66
2022/06/15 01:54:22;;;;;;;7.83;4.63;;;11.90;99.90;;;;;;5096912;28;20601;-66
2022/06/15 01:56:51;;;;;;;8.10;4.70;;;11.90;99.90;;;;;;5093622;28;20196;-66
2022/06/15 01:59:52;;;;;;;6.07;4.57;;;11.90;99.90;;;;;;5096668;28;20642;-66
2022/06/15 02:02:39;;;;;;;6.60;4.53;;;11.90;99.90;;;;;;5095549;28;20187;-66
2022/06/15 02:05:22;;;;;;;8.30;4.43;;;11.80;99.90;;;;;;5095318;28;20253;-66
2022/06/15 02:08:00;;;;;;;8.23;4.63;;;11.90;99.90;;;;;;5096433;28;20231;-66
2022/06/15 02:10:36;;;;;;;7.33;5.63;;;11.80;99.90;;;;;;5096491;28;20197;-65
2022/06/15 02:13:19;;;;;;;7.50;5.53;;;11.80;99.90;;;;;;5095171;28;20242;-66
2022/06/15 02:15:51;;;;;;;9.77;5.20;;;11.80;99.90;;;;;;5094722;28;20206;-66
2022/06/15 02:18:20;;;;;;;8.53;5.40;;;11.70;99.90;;;;;;5096463;28;20169;-66
2022/06/15 02:20:58;;;;;;;7.93;5.40;;;11.60;99.90;;;;;;5094974;28;20593;-66
2022/06/15 02:23:27;;;;;;;7.57;5.17;;;11.50;99.90;;;;;;5096291;28;20223;-66
2022/06/15 02:25:54;;;;;;;13.50;5.50;;;11.50;99.90;;;;;;5095972;28;20199;-65
2022/06/15 02:28:26;;;;;;;7.83;5.30;;;11.50;99.90;;;;;;5096590;28;20217;-66
2022/06/15 02:30:51;;;;;;;7.50;5.67;;;11.40;99.90;;;;;;5096074;28;20154;-66
2022/06/15 02:33:25;;;;;;;9.67;5.43;;;11.40;99.90;;;;;;5095855;28;20185;-66
2022/06/15 02:35:51;;;;;;;8.00;5.37;;;11.40;99.90;;;;;;5095883;28;20642;-66
2022/06/15 02:38:17;;;;;;;7.73;5.40;;;11.30;99.90;;;;;;5096122;28;20538;-67
2022/06/15 02:40:42;;;;;;;6.70;4.97;;;11.30;99.90;;;;;;5095843;28;20169;-66
2022/06/15 02:43:10;;;;;;;5.57;5.00;;;11.30;99.90;;;;;;5094387;28;20224;-66
2022/06/15 02:45:39;;;;;;;9.90;5.73;;;11.30;99.90;;;;;;5095820;28;20225;-67
2022/06/15 02:48:07;;;;;;;7.83;5.47;;;11.30;99.90;;;;;;5094440;28;20197;-66
2022/06/15 02:50:45;;;;;;;6.40;5.33;;;11.30;99.90;;;;;;5094361;28;20174;-66
2022/06/15 02:53:16;;;;;;;8.57;5.27;;;11.30;99.90;;;;;;5096115;28;20188;-67
2022/06/15 02:55:43;;;;;;;7.30;5.47;;;11.40;99.90;;;;;;5094175;28;20642;-66
2022/06/15 02:58:11;;;;;;;11.20;6.00;;;11.40;99.90;;;;;;5094326;28;20181;-67
2022/06/15 03:00:38;;;;;;;8.33;5.67;;;11.40;99.90;;;;;;5095461;28;20608;-67
2022/06/15 03:03:05;;;;;;;6.57;5.23;;;11.30;99.90;;;;;;5095496;28;20193;-66
2022/06/15 03:05:30;;;;;;;10.93;6.20;;;11.40;99.90;;;;;;5095515;28;20181;-66
2022/06/15 03:07:56;;;;;;;7.47;5.70;;;11.30;99.90;;;;;;5095325;28;20669;-66
2022/06/15 03:10:22;;;;;;;8.17;6.10;;;11.20;99.90;;;;;;5095843;28;20169;-66
2022/06/15 03:12:48;;;;;;;8.93;6.37;;;11.20;99.90;;;;;;5095306;28;20202;-66
2022/06/15 03:15:14;;;;;;;12.43;6.60;;;11.10;99.90;;;;;;5095564;28;20181;-66
2022/06/15 03:17:40;;;;;;;8.83;6.60;;;11.10;99.90;;;;;;5096029;28;20173;-66
2022/06/15 03:20:09;;;;;;;9.57;6.87;;;11.00;99.90;;;;;;5096653;28;20231;-66
2022/06/15 03:22:35;;;;;;;9.77;7.33;;;11.00;99.90;;;;;;5095847;28;20193;-67
2022/06/15 03:25:02;;;;;;;10.63;6.67;;;10.90;99.90;;;;;;5095646;28;20652;-66
2022/06/15 03:27:28;;;;;;;10.40;6.70;;;10.90;99.90;;;;;;5093417;28;20209;-66
2022/06/15 03:29:54;;;;;;;11.30;6.60;;;10.90;99.90;;;;;;5095219;28;20638;-66
2022/06/15 03:32:19;;;;;;;12.23;7.37;;;10.90;99.90;;;;;;5093829;28;20216;-66
2022/06/15 03:34:45;;;;;;;11.40;6.70;;;10.90;99.90;;;;;;5093886;28;20173;-66
2022/06/15 03:37:12;;;;;;;9.27;6.37;;;10.90;99.90;;;;;;5095720;28;20158;-66
2022/06/15 03:39:38;;;;;;;7.97;6.57;;;10.90;99.90;;;;;;5093774;28;20236;-66
2022/06/15 03:42:30;;;;;;;8.83;6.10;;;10.90;99.90;;;;;;5094767;28;20177;-66
2022/06/15 03:44:56;;;;;;;7.80;5.73;;;10.80;99.90;;;;;;5093859;28;20396;-66
2022/06/15 03:47:21;;;;;;;9.03;6.20;;;10.70;99.90;;;;;;5094501;28;20221;-66
2022/06/15 03:49:50;;;;;;;7.10;6.40;;;10.70;99.90;;;;;;5093474;28;20260;-66
2022/06/15 03:52:17;;;;;;;8.47;5.67;;;10.70;99.90;;;;;;5094499;28;20174;-66
2022/06/15 03:54:44;;;;;;;9.47;6.03;;;10.60;99.90;;;;;;5094577;28;20173;-66
2022/06/15 03:57:12;;;;;;;10.03;5.93;;;10.50;99.90;;;;;;5094354;28;20181;-66
2022/06/15 03:59:39;;;;;;;8.03;6.33;;;10.50;99.90;;;;;;5094581;28;20179;-66
2022/06/15 04:02:05;;;;;;;8.97;6.40;;;10.50;99.90;;;;;;5093039;28;20184;-66
2022/06/15 04:04:31;;;;;;;8.03;5.83;;;10.50;99.90;;;;;;5092933;28;20701;-66
2022/06/15 04:06:59;;;;;;;8.43;6.47;;;10.60;99.90;;;;;;5094218;28;20177;-66
2022/06/15 04:09:25;;;;;;;13.60;6.70;;;10.70;99.90;;;;;;5094188;28;20169;-66
2022/06/15 04:11:58;;;;;;;9.33;6.70;;;10.70;99.90;;;;;;5094284;28;20173;-66
2022/06/15 04:14:28;;;;;;;7.83;6.20;;;10.70;99.90;;;;;;5094031;28;20296;-66
2022/06/15 04:16:54;;;;;;;8.37;6.57;;;10.70;99.90;;;;;;5093798;28;20230;-67
2022/06/15 04:19:21;;;;;;;8.63;7.60;;;10.70;99.90;;;;;;5094200;28;20251;-66
2022/06/15 04:21:47;;;;;;;11.30;7.60;;;10.80;99.90;;;;;;5094294;28;20248;-66
2022/06/15 04:24:14;;;;;;;10.77;7.60;;;10.90;99.90;;;;;;5093868;28;20185;-66
2022/06/15 04:26:41;;;;;;;9.87;8.07;;;10.90;99.90;;;;;;5093830;28;20313;-66
2022/06/15 04:29:07;;;;;;;11.93;8.03;;;11.00;99.90;;;;;;5093973;28;20203;-66
2022/06/15 04:31:33;;;;;;;12.07;8.77;;;11.10;99.90;;;;;;5092275;28;20177;-66
2022/06/15 04:33:59;;;;;;;11.67;8.60;;;11.10;99.90;;;;;;5093610;28;20276;-67
2022/06/15 04:36:27;;;;;;;12.40;8.57;;;11.20;99.90;;;;;;5093651;28;20586;-66
2022/06/15 04:38:53;;;;;;;12.83;8.30;;;11.30;99.90;;;;;;5092842;28;20272;-66
2022/06/15 04:41:19;;;;;;;11.70;8.40;;;11.40;99.90;;;;;;5092332;28;20200;-67
2022/06/15 04:43:45;;;;;;;14.33;8.53;;;11.50;99.90;;;;;;5092242;28;20204;-66
2022/06/15 04:46:11;;;;;;;11.50;9.20;;;11.50;99.90;;;;;;5093263;28;20707;-66
2022/06/15 04:48:37;;;;;;;10.43;7.90;;;11.50;99.90;;;;;;5093740;28;20196;-67
2022/06/15 04:51:16;;;;;;;11.97;8.23;;;11.70;99.90;;;;;;5093506;28;20638;-66
2022/06/15 04:53:42;;;;;;;12.25;8.25;;;11.70;99.90;;;;;;5093432;28;20193;-67
2022/06/15 04:56:08;;;;;;;14.05;9.02;;;11.80;99.90;;;;;;5093444;28;20211;-67
2022/06/15 04:58:33;;;;;;;13.73;9.43;;;11.90;99.90;;;;;;5093445;28;20255;-66
2022/06/15 05:00:59;;;;;;;13.77;9.52;;;12.00;99.90;;;;;;5091894;28;20207;-66
2022/06/15 05:03:25;;;;;;;10.80;9.23;;;12.10;99.90;;;;;;5093211;28;20192;-66
2022/06/15 05:05:57;;;;;;;12.50;8.70;;;12.10;99.90;;;;;;5093532;28;20165;-66
2022/06/15 05:08:23;;;;;;;15.00;10.00;;;12.20;99.90;;;;;;5093382;28;20192;-66
2022/06/15 05:10:49;;;;;;;13.17;9.97;;;12.30;99.90;;;;;;5093430;28;20230;-66
2022/06/15 05:13:15;;;;;;;15.60;9.27;;;12.40;99.90;;;;;;5093684;28;20242;-65
2022/06/15 05:15:40;;;;;;;12.87;8.20;;;12.40;99.90;;;;;;5093611;28;20272;-67
2022/06/15 05:18:07;;;;;;;13.47;8.33;;;12.50;99.90;;;;;;5093355;28;20205;-66
2022/06/15 05:20:40;;;;;;;15.07;8.47;;;12.60;99.90;;;;;;5093209;28;20173;-66
2022/06/15 05:23:06;;;;;;;13.67;8.77;;;12.70;99.90;;;;;;5093165;28;20189;-67
2022/06/15 05:25:32;;;;;;;13.20;8.32;;;12.70;99.90;;;;;;5093127;28;20576;-66
2022/06/15 05:27:58;;;;;;;13.20;9.13;;;12.80;99.90;;;;;;5092891;28;20193;-66
2022/06/15 05:30:24;;;;;;;12.88;8.45;;;12.90;99.90;;;;;;5093156;28;20176;-67
2022/06/15 05:32:50;;;;;;;13.15;8.45;;;12.90;99.90;;;;;;5092679;28;20189;-66
2022/06/15 05:35:15;;;;;;;10.10;7.75;;;13.00;99.90;;;;;;5093335;28;20618;-66
2022/06/15 05:37:41;;;;;;;13.02;9.18;;;13.00;99.90;;;;;;5091606;28;20188;-67
2022/06/15 05:40:07;;;;;;;10.55;8.35;;;13.10;99.90;;;;;;5093004;28;20185;-66
2022/06/15 05:42:35;;;;;;;10.43;8.77;;;13.20;99.90;;;;;;5093236;28;20204;-66
2022/06/15 05:45:02;;;;;;;14.57;8.73;;;13.30;99.90;;;;;;5095629;28;20157;-67
2022/06/15 05:47:28;;;;;;;12.38;8.13;;;13.40;99.90;;;;;;5093582;28;20200;-66
2022/06/15 05:49:54;;;;;;;12.02;8.65;;;13.40;99.90;;;;;;5093862;28;20181;-66
2022/06/15 05:52:20;;;;;;;10.82;7.97;;;13.50;99.90;;;;;;5095173;28;20234;-66
2022/06/15 05:54:46;;;;;;;11.43;8.80;;;13.50;99.90;;;;;;5095201;28;20184;-66
2022/06/15 05:57:20;;;;;;;11.95;8.27;;;13.60;99.90;;;;;;5095087;28;20185;-66
2022/06/15 05:59:47;;;;;;;12.15;8.40;;;13.70;99.90;;;;;;5096917;28;20196;-66
2022/06/15 06:02:15;;;;;;;10.77;8.27;;;13.70;99.90;;;;;;5096046;28;20169;-66
2022/06/15 06:04:41;;;;;;;13.27;9.10;;;13.90;99.90;;;;;;5096567;28;20181;-67
2022/06/15 06:07:07;;;;;;;10.27;7.97;;;13.90;99.90;;;;;;5096139;28;20196;-66
2022/06/15 06:09:33;;;;;;;13.25;9.00;;;14.00;99.90;;;;;;5096348;28;20618;-66
2022/06/15 06:11:58;;;;;;;10.30;8.15;;;14.20;99.90;;;;;;5096518;28;20189;-66
2022/06/15 06:14:24;;;;;;;10.07;7.80;;;14.20;99.90;;;;;;5096079;28;20240;-67
2022/06/15 06:16:50;;;;;;;11.95;7.43;;;14.30;99.90;;;;;;5094732;28;20180;-66
2022/06/15 06:19:16;;;;;;;12.63;7.63;;;14.40;99.90;;;;;;5096502;28;20178;-66
2022/06/15 06:21:46;;;;;;;11.35;8.52;;;14.50;99.90;;;;;;5096168;28;20181;-67
2022/06/15 06:24:12;;;;;;;13.20;8.70;;;14.50;99.90;;;;;;5094715;28;20583;-66
2022/06/15 06:26:38;;;;;;;13.35;8.88;;;14.50;99.90;;;;;;5096029;28;20173;-67
2022/06/15 06:29:05;;;;;;;9.32;7.18;;;14.50;99.90;;;;;;5095904;28;20211;-67
2022/06/15 06:31:31;;;;;;;14.02;8.00;;;14.60;99.90;;;;;;5095727;28;20247;-67
2022/06/15 06:33:57;;;;;;;11.30;7.15;;;14.60;99.90;;;;;;5096148;28;20617;-67
2022/06/15 06:36:34;;;;;;;10.43;7.85;;;14.70;99.90;;;;;;5096120;28;20193;-66
2022/06/15 06:39:02;;;;;;;11.32;7.40;;;14.80;99.90;;;;;;5095842;28;20202;-66
2022/06/15 06:41:30;;;;;;;11.50;6.80;;;14.90;99.90;;;;;;5095672;28;20176;-66
2022/06/15 06:43:57;;;;;;;10.38;6.85;;;15.00;99.90;;;;;;5095724;28;20224;-67
2022/06/15 06:46:23;;;;;;;10.18;7.47;;;15.10;99.90;;;;;;5095693;28;20577;-67
2022/06/15 06:48:49;;;;;;;9.45;6.82;;;15.20;99.90;;;;;;5095634;28;20228;-67
2022/06/15 06:51:15;;;;;;;8.50;6.60;;;15.30;99.90;;;;;;5095742;28;20174;-67
2022/06/15 06:53:41;;;;;;;8.00;6.40;;;15.40;99.90;;;;;;5095755;28;20547;-67
2022/06/15 06:56:09;;;;;;;7.85;6.22;;;15.50;99.90;;;;;;5095162;28;20177;-67
2022/06/15 06:58:35;;;;;;;8.57;5.70;;;15.60;99.90;;;;;;5095575;28;20204;-67
2022/06/15 07:01:01;;;;;;;7.63;6.15;;;15.80;99.90;;;;;;5095063;28;20543;-68
2022/06/15 07:03:28;;;;;;;7.10;5.82;;;15.90;99.90;;;;;;5095070;28;20280;-67
2022/06/15 07:06:06;;;;;;;7.35;5.90;;;16.00;99.90;;;;;;5095534;28;20196;-69
2022/06/15 07:08:33;;;;;;;8.93;6.25;;;16.10;99.90;;;;;;5094563;28;20677;-67
2022/06/15 07:10:59;;;;;;;7.82;5.85;;;16.20;99.90;;;;;;5095932;28;20177;-67
2022/06/15 07:13:25;;;;;;;10.93;6.00;;;16.30;99.90;;;;;;5095603;28;20196;-68
2022/06/15 07:15:51;;;;;;;7.47;5.35;;;16.40;99.90;;;;;;5095550;28;20592;-67
2022/06/15 07:18:18;;;;;;;9.07;5.82;;;16.50;99.90;;;;;;5095217;28;20207;-67
2022/06/15 07:20:44;;;;;;;13.90;6.10;;;16.60;99.90;;;;;;5095391;28;20174;-67
2022/06/15 07:23:10;;;;;;;11.02;5.60;;;16.60;99.90;;;;;;5095546;28;20193;-67
2022/06/15 07:25:36;;;;;;;8.93;5.05;;;16.70;99.90;;;;;;5095470;28;20188;-66
2022/06/15 07:28:03;;;;;;;7.78;5.43;;;16.80;99.90;;;;;;5094947;28;20197;-67
2022/06/15 07:30:29;;;;;;;9.02;5.65;;;16.90;99.90;;;;;;5094869;28;20176;-67
2022/06/15 07:32:55;;;;;;;7.72;5.15;;;17.00;99.90;;;;;;5094571;28;20254;-67
2022/06/15 07:35:28;;;;;;;8.10;5.03;;;17.10;99.90;;;;;;5094679;28;20173;-67
2022/06/15 07:37:54;;;;;;;9.05;5.43;;;17.10;99.90;;;;;;5094848;28;20188;-67
2022/06/15 07:40:22;;;;;;;8.77;4.93;;;17.20;99.90;;;;;;5094869;28;20208;-67
2022/06/15 07:42:49;;;;;;;5.53;4.57;;;17.30;99.90;;;;;;5094474;28;20189;-67
2022/06/15 07:45:16;;;;;;;9.02;5.45;;;17.40;99.90;;;;;;5094908;28;20575;-67
2022/06/15 07:50:27;;;;;;;8.60;5.10;;;17.50;99.90;;;;;;5095071;28;20632;-67
2022/06/15 07:52:53;;;;;;;7.88;4.88;;;17.60;99.90;;;;;;5094473;28;20229;-67
2022/06/15 07:55:23;;;;;;;7.22;4.85;;;17.70;99.90;;;;;;5094671;28;20172;-67
2022/06/15 07:57:49;;;;;;;7.43;5.07;;;17.80;99.90;;;;;;5094288;28;20181;-67
2022/06/15 08:00:16;;;;;;;10.63;5.18;;;17.90;99.90;;;;;;5094465;28;20211;-70
2022/06/15 08:02:42;;;;;;;8.70;5.57;;;18.00;99.90;;;;;;5092771;28;20205;-70
2022/06/15 08:05:09;;;;;;;7.22;4.50;;;18.10;99.90;;;;;;5094260;28;20594;-70
2022/06/15 08:07:36;;;;;;;7.65;5.07;;;18.30;99.90;;;;;;5094698;28;20221;-68
2022/06/15 08:10:02;;;;;;;10.00;4.72;;;18.40;99.90;;;;;;5094788;28;20158;-68
2022/06/15 08:12:28;;;;;;;7.93;4.60;;;18.50;99.90;;;;;;5093813;28;20229;-68
2022/06/15 08:14:58;;;;;;;7.88;5.00;;;18.60;99.90;;;;;;5091926;28;20253;-67
2022/06/15 08:17:25;;;;;;;11.93;5.32;;;18.60;99.90;;;;;;5094737;28;20188;-68
2022/06/15 08:20:00;;;;;;;8.95;4.55;;;18.70;99.90;;;;;;5094370;28;20169;-68
2022/06/15 08:22:27;;;;;;;6.28;4.75;;;18.80;99.90;;;;;;5095493;28;20187;-69
2022/06/15 08:24:54;;;;;;;5.53;4.07;;;19.00;99.90;;;;;;5094915;28;20582;-67
2022/06/15 08:27:22;;;;;;;8.73;5.00;;;19.10;99.90;;;;;;5095505;28;20246;-68
2022/06/15 08:29:49;;;;;;;7.90;4.82;;;19.00;99.90;;;;;;5094875;28;20235;-69
2022/06/15 08:32:15;;;;;;;8.85;4.38;;;19.10;99.90;;;;;;5093871;28;20195;-68
2022/06/15 08:34:41;;;;;;;6.35;3.80;;;19.20;99.90;;;;;;5092673;28;20242;-68
2022/06/15 08:37:11;;;;;;;7.95;3.20;;;19.30;99.90;;;;;;5095395;28;20626;-67
2022/06/15 08:39:39;;;;;;;6.25;4.15;;;19.50;99.90;;;;;;5094038;28;20230;-67
2022/06/15 08:42:32;;;;;;;6.45;3.45;;;19.60;99.90;;;;;;5095360;28;20169;-68
2022/06/15 08:45:29;;;;;;;8.02;3.40;;;19.80;99.90;;;;;;5094791;28;20154;-69
2022/06/15 08:48:22;;;;;;;4.57;3.25;;;19.90;99.90;;;;;;5094587;28;20205;-70
2022/06/15 08:51:05;;;;;;;9.50;3.45;;;20.00;99.90;;;;;;5094396;28;20298;-70
2022/06/15 08:53:41;;;;;;;9.43;3.60;;;20.10;99.90;;;;;;5094795;28;20197;-70
2022/06/15 08:56:17;;;;;;;6.35;3.03;;;20.20;99.90;;;;;;5091262;28;20189;-70
2022/06/15 08:59:06;;;;;;;3.78;2.83;;;20.20;99.90;;;;;;5076275;28;20292;-70
2022/06/15 09:01:55;;;;;;;4.65;3.10;;;20.40;99.90;;;;;;5074333;28;20256;-70
2022/06/15 09:04:42;;;;;;;4.75;3.08;;;20.50;99.90;;;;;;5073420;28;20232;-70
2022/06/15 09:07:26;;;;;;;5.30;2.60;;;20.70;99.90;;;;;;5074153;28;20185;-69
2022/06/15 09:09:59;;;;;;;5.75;3.53;;;20.90;99.90;;;;;;5073423;28;20174;-70
2022/06/15 09:16:13;;;;;;;5.65;3.17;;;21.30;99.90;;;;;;5072640;28;20221;-70
2022/06/15 09:19:02;;;;;;;4.95;2.97;;;21.50;99.90;;;;;;5074565;28;20160;-69
2022/06/15 09:21:57;;;;;;;4.82;2.42;;;21.90;99.90;;;;;;5073228;28;20189;-70
2022/06/15 09:24:47;;;;;;;6.03;3.05;;;22.20;99.90;;;;;;5074336;28;20190;-69
2022/06/15 09:27:26;;;;;;;8.98;3.47;;;22.50;99.90;;;;;;5090521;28;20200;-69
2022/06/15 09:30:16;;;;;;;5.07;2.85;;;22.60;99.90;;;;;;5098401;28;20200;-69
2022/06/15 09:32:54;;;;;;;5.63;3.35;;;22.90;99.90;;;;;;5097510;28;20193;-69
2022/06/15 09:35:35;;;;;;;3.80;2.60;;;23.00;99.90;;;;;;5096202;28;20181;-69
2022/06/15 09:38:09;;;;;;;4.03;2.75;;;23.20;99.90;;;;;;5097197;28;20528;-69
2022/06/15 09:40:59;;;;;;;5.93;3.17;;;23.30;99.90;;;;;;5096148;28;20668;-69
2022/06/15 09:43:46;;;;;;;3.50;2.50;;;23.20;99.90;;;;;;5097209;28;20211;-69
2022/06/15 09:46:21;;;;;;;11.20;3.05;;;23.40;99.90;;;;;;5095907;28;20638;-69
2022/06/15 09:49:29;;;;;;;3.42;2.83;;;23.40;99.90;;;;;;5096870;28;20216;-69
2022/06/15 09:52:14;;;;;;;5.20;2.95;;;23.60;99.90;;;;;;5097358;28;20607;-69
2022/06/15 09:54:57;;;;;;;4.38;2.70;;;23.50;99.90;;;;;;5097456;28;20592;-69
2022/06/15 09:57:28;;;;;;;5.13;2.70;;;23.70;99.90;;;;;;5095589;28;20607;-69
2022/06/15 09:59:54;;;;;;;6.60;2.78;;;23.80;99.90;;;;;;5097230;28;20177;-69
2022/06/15 10:02:34;;;;;;;7.13;2.45;;;24.00;99.90;;;;;;5096734;28;20598;-69
2022/06/15 10:05:08;;;;;;;6.03;3.15;;;24.30;99.90;;;;;;5096829;28;20571;-69
2022/06/15 10:07:41;;;;;;;7.05;3.03;;;24.00;99.90;;;;;;5096942;28;20185;-69
2022/06/15 10:10:39;;;;;;;8.52;3.03;;;24.00;99.90;;;;;;5096912;28;20160;-70
2022/06/15 10:13:33;;;;;;;4.85;2.75;;;24.00;99.90;;;;;;5095282;28;20691;-69
2022/06/15 10:16:17;;;;;;;5.47;2.38;;;24.20;99.90;;;;;;5095361;28;20255;-69
2022/06/15 10:18:49;;;;;;;6.22;2.88;;;24.30;99.90;;;;;;5096309;28;20169;-69
2022/06/15 10:21:18;;;;;;;4.93;2.60;;;24.50;99.90;;;;;;5096381;28;20650;-69
2022/06/15 10:24:23;;;;;;;5.60;3.17;;;24.60;99.90;;;;;;5094922;28;20571;-70
2022/06/15 10:27:21;;;;;;;7.47;3.15;;;24.70;99.90;;;;;;5094761;28;20196;-69
2022/06/15 10:30:12;;;;;;;7.30;2.90;;;24.70;99.90;;;;;;5094364;28;20700;-69
2022/06/15 10:32:57;;;;;;;3.53;2.47;;;24.40;99.90;;;;;;5096101;28;20196;-69
2022/06/15 10:35:29;;;;;;;6.78;2.70;;;24.50;99.90;;;;;;5096647;28;20602;-69
2022/06/15 10:37:59;;;;;;;3.35;2.40;;;24.70;99.90;;;;;;5093697;28;20248;-70
2022/06/15 10:40:25;;;;;;;4.63;2.90;;;24.80;99.90;;;;;;5096017;28;20172;-69
2022/06/15 10:43:18;;;;;;;6.55;3.00;;;24.90;99.90;;;;;;5094468;28;20193;-69
2022/06/15 10:45:58;;;;;;;5.65;2.90;;;25.10;99.90;;;;;;5091562;28;20268;-69
2022/06/15 10:48:47;;;;;;;3.80;2.47;;;25.00;99.90;;;;;;5095648;28;20188;-69
2022/06/15 10:51:28;;;;;;;10.18;3.05;;;24.90;99.90;;;;;;5096000;28;20173;-70
2022/06/15 10:54:18;;;;;;;4.88;2.67;;;24.80;99.90;;;;;;5096630;28;20200;-69
2022/06/15 11:02:41;;;;;;;5.78;3.22;;;25.20;99.90;;;;;;5095571;28;20655;-69
2022/06/15 11:05:10;;;;;;;5.22;2.53;;;25.30;99.90;;;;;;5096359;28;20513;-69
2022/06/15 11:07:51;;;;;;;4.13;2.65;;;25.50;99.90;;;;;;5095506;28;20197;-70
2022/06/15 11:10:35;;;;;;;6.53;2.58;;;25.60;99.90;;;;;;5095819;28;20162;-69
2022/06/15 11:13:17;;;;;;;7.78;2.60;;;25.60;99.90;;;;;;5095356;28;20193;-69
2022/06/15 11:18:37;;;;;;;3.45;2.17;;;25.90;99.90;;;;;;5095323;28;20168;-70
2022/06/15 11:21:14;;;;;;;6.50;2.35;;;26.10;99.90;;;;;;5095758;28;20162;-69
2022/06/15 11:23:40;;;;;;;6.50;2.65;;;26.20;99.90;;;;;;5095117;28;20226;-70
2022/06/15 11:26:54;;;;;;;6.05;2.70;;;26.40;99.90;;;;;;5095056;28;20185;-69
2022/06/15 11:29:42;;;;;;;6.50;2.97;;;26.60;99.90;;;;;;5073289;28;20194;-70
2022/06/15 11:32:14;;;;;;;5.53;2.72;;;26.90;99.90;;;;;;5095000;28;20258;-69
2022/06/15 11:34:53;;;;;;;6.10;3.35;;;26.90;99.90;;;;;;5094992;28;20238;-69
2022/06/15 11:37:34;;;;;;;4.15;2.72;;;26.70;99.90;;;;;;5093653;28;20169;-70
2022/06/15 11:40:14;;;;;;;7.10;3.13;;;26.80;99.90;;;;;;5094941;28;20153;-70
2022/06/15 11:42:42;;;;;;;6.88;2.72;;;26.80;99.90;;;;;;5093517;28;20561;-70
2022/06/15 11:45:14;;;;;;;5.72;2.55;;;27.00;99.90;;;;;;5095188;28;20184;-70
2022/06/15 11:48:23;;;;;;;4.70;2.58;;;27.30;99.90;;;;;;5094594;28;20547;-69
2022/06/15 11:50:57;;;;;;;4.88;2.97;;;27.40;99.90;;;;;;5095104;28;20537;-69
2022/06/15 11:53:31;;;;;;;6.75;2.45;;;27.70;99.90;;;;;;5093427;28;20193;-70
2022/06/15 11:56:05;;;;;;;6.22;2.53;;;27.70;99.90;;;;;;5095083;28;20184;-70
2022/06/15 11:59:28;;;;;;;4.30;2.40;;;27.70;99.90;;;;;;5095052;28;20161;-69
2022/06/15 12:02:12;;;;;;;5.72;2.63;;;27.70;99.90;;;;;;5071591;28;20189;-70
2022/06/15 12:04:54;;;;;;;5.72;2.78;;;27.80;99.90;;;;;;5093398;28;20760;-70
2022/06/15 12:07:31;;;;;;;8.80;2.70;;;27.70;99.90;;;;;;5094927;28;20642;-69
2022/06/15 12:10:26;;;;;;;5.95;2.70;;;27.40;99.90;;;;;;5094981;28;20161;-70
2022/06/15 12:13:04;;;;;;;5.60;3.03;;;27.40;99.90;;;;;;5093182;28;20201;-70
2022/06/15 12:15:45;;;;;;;6.28;3.00;;;27.40;99.90;;;;;;5093084;28;20262;-70
2022/06/15 12:18:41;;;;;;;4.68;2.47;;;27.30;99.90;;;;;;5094194;28;20153;-70
2022/06/15 12:21:19;;;;;;;8.15;2.75;;;27.70;99.90;;;;;;5092880;28;20180;-70
2022/06/15 12:24:05;;;;;;;6.25;2.50;;;28.00;99.90;;;;;;5094581;28;20723;-70
2022/06/15 12:27:07;;;;;;;3.75;2.20;;;28.50;99.90;;;;;;5093960;28;20195;-70
2022/06/15 12:29:57;;;;;;;3.45;2.22;;;28.70;99.90;;;;;;5094392;28;20610;-69
2022/06/15 12:32:41;;;;;;;5.70;2.65;;;29.10;99.90;;;;;;5094089;28;20169;-70
2022/06/15 12:35:25;;;;;;;3.03;2.70;;;29.50;99.90;;;;;;5094614;28;20567;-70
2022/06/15 12:38:02;;;;;;;5.22;2.50;;;29.40;99.90;;;;;;5094723;28;20207;-70
2022/06/15 12:40:38;;;;;;;5.28;2.65;;;29.10;99.90;;;;;;5094689;28;20545;-70
2022/06/15 12:43:41;;;;;;;6.18;2.17;;;29.30;99.90;;;;;;5092686;28;20689;-70
2022/06/15 12:46:11;;;;;;;7.03;2.40;;;29.80;99.90;;;;;;5083764;28;20192;-70
2022/06/15 12:49:17;;;;;;;4.32;2.20;;;30.00;99.90;;;;;;5093805;28;20200;-70
2022/06/15 12:52:21;;;;;;;5.45;2.03;;;30.10;99.90;;;;;;5094350;28;20157;-70
2022/06/15 12:55:03;;;;;;;4.22;2.28;;;30.00;99.90;;;;;;5094113;28;20184;-70
2022/06/15 12:58:02;;;;;;;4.68;2.28;;;30.40;99.90;;;;;;5094196;28;20187;-70
2022/06/15 13:00:31;;;;;;;4.97;2.35;;;30.40;99.90;;;;;;5096843;28;20548;-70
2022/06/15 13:03:17;;;;;;;3.88;1.98;;;30.60;99.90;;;;;;5098430;28;20577;-70
2022/06/15 13:05:43;;;;;;;3.90;2.00;;;30.60;99.90;;;;;;5097761;28;20645;-70
2022/06/15 13:08:14;;;;;;;5.60;2.53;;;30.50;99.90;;;;;;5098171;28;20649;-70
2022/06/15 13:11:12;;;;;;;4.50;2.10;;;30.50;99.90;;;;;;5096533;28;20188;-70
2022/06/15 13:13:48;;;;;;;5.55;2.00;;;31.00;99.90;;;;;;5089772;28;20287;-72
2022/06/15 13:16:38;;;;;;;3.03;2.17;;;31.00;99.90;;;;;;5098123;28;20161;-70
2022/06/15 13:19:07;;;;;;;5.95;2.60;;;31.30;99.90;;;;;;5096255;28;20269;-70
2022/06/15 13:22:04;;;;;;;5.13;2.72;;;31.50;99.90;;;;;;5098031;28;20201;-70
2022/06/15 13:24:30;;;;;;;4.30;2.33;;;31.30;99.90;;;;;;5093193;28;20204;-70
2022/06/15 13:27:01;;;;;;;5.25;2.70;;;31.00;99.90;;;;;;5096307;28;20680;-70
2022/06/15 13:29:32;;;;;;;4.90;2.30;;;30.70;99.90;;;;;;5098055;28;20161;-70
2022/06/15 13:32:05;;;;;;;3.40;2.00;;;31.20;99.90;;;;;;5098023;28;20518;-70